createdAt,value
2022-12-29T00:00:56.510Z,97.50
2022-12-29T00:03:23.592Z,97.40
2022-12-29T00:05:58.361Z,97.40
2022-12-29T00:08:40.177Z,97.30
2022-12-29T00:11:21.841Z,97.30
2022-12-29T00:14:08.817Z,97.30
2022-12-29T00:16:39.016Z,97.30
2022-12-29T00:19:06.244Z,97.30
2022-12-29T00:21:52.515Z,97.30
2022-12-29T00:24:23.134Z,97.30
2022-12-29T00:27:22.769Z,97.50
2022-12-29T00:30:09.232Z,97.40
2022-12-29T00:32:55.501Z,97.40
2022-12-29T00:35:56.977Z,97.40
2022-12-29T00:38:42.892Z,97.20
2022-12-29T00:41:28.321Z,97.20
2022-12-29T00:44:07.145Z,97.10
2022-12-29T00:46:52.355Z,97.00
2022-12-29T00:49:31.483Z,97.00
2022-12-29T00:52:06.436Z,97.00
2022-12-29T00:54:39.030Z,97.10
2022-12-29T00:57:09.625Z,97.00
2022-12-29T00:59:42.713Z,96.80
2022-12-29T01:02:11.562Z,96.80
2022-12-29T01:04:38.770Z,96.70
2022-12-29T01:07:06.192Z,96.70
2022-12-29T01:09:52.067Z,96.60
2022-12-29T01:12:39.312Z,96.70
2022-12-29T01:15:09.594Z,96.60
2022-12-29T01:17:36.775Z,96.60
2022-12-29T01:20:05.913Z,96.60
2022-12-29T01:22:32.863Z,96.60
2022-12-29T01:24:59.768Z,96.60
2022-12-29T01:27:27.002Z,96.50
2022-12-29T01:29:53.898Z,96.50
2022-12-29T01:32:21.028Z,96.60
2022-12-29T01:34:47.935Z,96.60
2022-12-29T01:37:15.212Z,96.60
2022-12-29T01:39:42.103Z,96.50
2022-12-29T01:42:20.177Z,96.50
2022-12-29T01:45:00.883Z,96.50
2022-12-29T01:47:49.507Z,96.50
2022-12-29T01:50:40.284Z,96.80
2022-12-29T01:53:28.288Z,96.90
2022-12-29T01:56:06.097Z,97.20
2022-12-29T01:58:47.039Z,97.20
2022-12-29T02:01:19.117Z,97.20
2022-12-29T02:03:46.783Z,97.10
2022-12-29T02:06:28.507Z,97.00
2022-12-29T02:08:57.627Z,96.80
2022-12-29T02:11:30.909Z,96.90
2022-12-29T02:14:01.979Z,96.80
2022-12-29T02:16:40.536Z,96.90
2022-12-29T02:20:24.202Z,97.30
2022-12-29T02:23:24.913Z,97.30
2022-12-29T02:26:24.531Z,97.20
2022-12-29T02:29:50.228Z,97.00
2022-12-29T02:32:55.572Z,96.80
2022-12-29T02:36:08.806Z,96.40
2022-12-29T02:38:48.865Z,96.30
2022-12-29T02:41:34.645Z,96.10
2022-12-29T02:44:47.088Z,95.60
2022-12-29T02:47:59.192Z,95.40
2022-12-29T02:50:41.896Z,95.00
2022-12-29T02:53:40.472Z,95.10
2022-12-29T02:56:07.585Z,94.50
2022-12-29T02:58:34.541Z,94.10
2022-12-29T03:01:31.124Z,94.00
2022-12-29T03:04:43.316Z,93.70
2022-12-29T03:07:44.202Z,93.50
2022-12-29T03:10:38.026Z,93.40
2022-12-29T03:13:58.855Z,93.10
2022-12-29T03:16:50.153Z,93.20
2022-12-29T03:19:40.577Z,93.20
2022-12-29T03:22:33.533Z,93.20
2022-12-29T03:25:11.258Z,93.10
2022-12-29T03:27:50.122Z,93.20
2022-12-29T03:30:18.625Z,93.20
2022-12-29T03:33:01.224Z,93.30
2022-12-29T03:35:38.032Z,93.40
2022-12-29T03:38:26.353Z,93.20
2022-12-29T03:41:00.593Z,93.00
2022-12-29T03:43:30.052Z,93.10
2022-12-29T03:45:57.106Z,93.00
2022-12-29T03:48:24.030Z,93.00
2022-12-29T03:50:50.931Z,93.00
2022-12-29T03:53:17.910Z,93.20
2022-12-29T03:55:45.588Z,93.10
2022-12-29T03:58:12.778Z,93.00
2022-12-29T04:00:39.676Z,93.00
2022-12-29T04:03:06.639Z,93.10
2022-12-29T04:05:33.595Z,93.20
2022-12-29T04:08:00.885Z,93.20
2022-12-29T04:10:27.793Z,93.40
2022-12-29T04:12:54.651Z,93.70
2022-12-29T04:15:21.684Z,94.00
2022-12-29T04:17:48.538Z,94.10
2022-12-29T04:20:34.239Z,94.30
2022-12-29T04:23:07.200Z,94.00
2022-12-29T04:25:35.019Z,94.00
2022-12-29T04:28:02.754Z,94.10
2022-12-29T04:30:29.643Z,94.00
2022-12-29T04:32:56.576Z,94.10
2022-12-29T04:35:23.479Z,94.00
2022-12-29T04:37:50.435Z,94.00
2022-12-29T04:40:17.479Z,93.90
2022-12-29T04:42:44.336Z,94.00
2022-12-29T04:45:12.004Z,94.10
2022-12-29T04:47:38.943Z,94.10
2022-12-29T04:50:06.756Z,94.20
2022-12-29T04:52:34.219Z,94.20
2022-12-29T04:55:02.081Z,94.10
2022-12-29T04:57:28.938Z,94.10
2022-12-29T04:59:55.835Z,93.80
2022-12-29T05:02:23.231Z,93.90
2022-12-29T05:04:50.598Z,94.00
2022-12-29T05:07:17.555Z,93.70
2022-12-29T05:09:45.231Z,93.90
2022-12-29T05:12:12.099Z,93.90
2022-12-29T05:14:38.964Z,93.80
2022-12-29T05:17:05.851Z,93.80
2022-12-29T05:19:32.797Z,93.80
2022-12-29T05:22:00.540Z,93.40
2022-12-29T05:24:27.469Z,93.50
2022-12-29T05:26:54.308Z,93.50
2022-12-29T05:29:23.580Z,93.60
2022-12-29T05:31:50.493Z,93.60
2022-12-29T05:34:17.493Z,93.70
2022-12-29T05:36:45.396Z,93.60
2022-12-29T05:39:12.290Z,93.50
2022-12-29T05:41:39.211Z,93.60
2022-12-29T05:44:06.220Z,93.50
2022-12-29T05:46:33.454Z,93.60
2022-12-29T05:49:00.385Z,93.60
2022-12-29T05:51:27.298Z,93.80
2022-12-29T05:53:54.202Z,93.80
2022-12-29T05:56:21.301Z,94.10
2022-12-29T05:58:51.105Z,94.30
2022-12-29T06:01:18.080Z,94.10
2022-12-29T06:03:48.419Z,94.00
2022-12-29T06:06:15.807Z,94.10
2022-12-29T06:08:42.839Z,94.20
2022-12-29T06:11:10.091Z,94.20
2022-12-29T06:13:37.427Z,94.20
2022-12-29T06:16:05.205Z,94.30
2022-12-29T06:18:33.238Z,94.20
2022-12-29T06:21:06.020Z,94.20
2022-12-29T06:23:33.337Z,94.20
2022-12-29T06:26:00.238Z,94.30
2022-12-29T06:28:27.245Z,94.30
2022-12-29T06:30:54.194Z,94.30
2022-12-29T06:33:21.735Z,94.30
2022-12-29T06:35:48.628Z,94.30
2022-12-29T06:38:15.588Z,94.30
2022-12-29T06:40:45.732Z,94.30
2022-12-29T06:43:12.661Z,94.40
2022-12-29T06:45:41.514Z,94.40
2022-12-29T06:48:08.855Z,94.50
2022-12-29T06:50:36.194Z,94.50
2022-12-29T06:53:03.459Z,94.60
2022-12-29T06:55:30.550Z,94.70
2022-12-29T06:57:59.405Z,94.80
2022-12-29T07:00:26.930Z,94.80
2022-12-29T07:02:59.235Z,94.60
2022-12-29T07:05:28.927Z,94.60
2022-12-29T07:07:56.518Z,94.60
2022-12-29T07:10:23.816Z,94.50
2022-12-29T07:12:50.877Z,94.50
2022-12-29T07:15:18.357Z,94.50
2022-12-29T07:17:45.312Z,94.70
2022-12-29T07:20:12.341Z,94.50
2022-12-29T07:22:39.621Z,94.50
2022-12-29T07:25:07.085Z,94.50
2022-12-29T07:27:33.957Z,94.50
2022-12-29T07:30:00.875Z,94.50
2022-12-29T07:32:27.808Z,94.40
2022-12-29T07:34:54.676Z,94.40
2022-12-29T07:37:21.614Z,94.30
2022-12-29T07:39:48.478Z,93.90
2022-12-29T07:42:15.364Z,93.80
2022-12-29T07:44:42.248Z,93.20
2022-12-29T07:47:09.277Z,93.00
2022-12-29T07:49:36.219Z,92.60
2022-12-29T07:52:03.235Z,92.50
2022-12-29T07:54:30.150Z,92.40
2022-12-29T07:56:58.372Z,92.50
2022-12-29T07:59:25.276Z,92.50
2022-12-29T08:01:52.752Z,92.70
2022-12-29T08:04:19.861Z,92.90
2022-12-29T08:06:46.788Z,93.10
2022-12-29T08:09:21.483Z,92.90
2022-12-29T08:11:49.765Z,93.10
2022-12-29T08:14:16.742Z,93.40
2022-12-29T08:16:43.666Z,93.10
2022-12-29T08:19:13.428Z,93.00
2022-12-29T08:21:40.817Z,93.20
2022-12-29T08:24:10.062Z,93.10
2022-12-29T08:26:37.072Z,93.00
2022-12-29T08:29:04.020Z,92.90
2022-12-29T08:31:30.972Z,92.70
2022-12-29T08:33:57.890Z,92.60
2022-12-29T08:36:24.775Z,92.60
2022-12-29T08:38:51.638Z,92.70
2022-12-29T08:41:18.553Z,92.50
2022-12-29T08:43:50.336Z,92.30
2022-12-29T08:46:17.997Z,92.30
2022-12-29T08:48:45.038Z,92.30
2022-12-29T08:51:12.291Z,92.30
2022-12-29T08:53:39.541Z,92.20
2022-12-29T08:56:07.337Z,92.20
2022-12-29T08:58:34.336Z,92.10
2022-12-29T09:06:43.740Z,92.30
2022-12-29T09:09:11.917Z,92.20
2022-12-29T09:11:39.038Z,92.30
2022-12-29T09:14:06.102Z,92.10
2022-12-29T09:16:34.821Z,92.10
2022-12-29T09:19:03.231Z,92.10
2022-12-29T09:21:30.152Z,92.10
2022-12-29T09:23:57.058Z,92.00
2022-12-29T09:26:23.996Z,92.00
2022-12-29T09:28:50.953Z,92.30
2022-12-29T09:31:17.855Z,92.30
2022-12-29T09:33:44.847Z,92.30
2022-12-29T09:36:11.754Z,92.20
2022-12-29T09:38:38.734Z,92.20
2022-12-29T09:41:27.849Z,91.90
2022-12-29T09:44:04.271Z,91.40
2022-12-29T09:46:51.309Z,91.50
2022-12-29T09:49:47.090Z,91.40
2022-12-29T09:52:30.263Z,91.50
2022-12-29T09:55:20.134Z,91.40
2022-12-29T09:57:59.780Z,91.40
2022-12-29T10:01:06.001Z,91.20
2022-12-29T10:03:58.244Z,90.60
2022-12-29T10:07:29.690Z,89.60
2022-12-29T10:10:35.956Z,89.50
2022-12-29T10:13:59.345Z,89.70
2022-12-29T10:16:54.802Z,90.10
2022-12-29T10:20:11.551Z,90.40
2022-12-29T10:23:20.817Z,90.00
2022-12-29T10:25:48.621Z,90.30
2022-12-29T10:29:01.926Z,90.00
2022-12-29T10:32:18.082Z,89.90
2022-12-29T10:34:56.644Z,89.60
2022-12-29T10:37:48.715Z,90.00
2022-12-29T10:40:24.227Z,90.00
2022-12-29T10:42:57.844Z,90.00
2022-12-29T10:45:31.863Z,89.70
2022-12-29T10:48:34.152Z,89.40
2022-12-29T10:51:08.336Z,89.50
2022-12-29T10:53:55.288Z,89.50
2022-12-29T10:56:45.918Z,89.20
2022-12-29T10:59:33.583Z,88.10
2022-12-29T11:02:12.621Z,86.90
2022-12-29T11:05:25.129Z,86.90
2022-12-29T11:08:05.427Z,85.80
2022-12-29T11:10:44.446Z,85.80
2022-12-29T11:13:38.513Z,86.10
2022-12-29T11:16:06.757Z,85.90
2022-12-29T11:18:38.108Z,86.30
2022-12-29T11:21:27.980Z,86.30
2022-12-29T11:24:05.540Z,86.90
2022-12-29T11:26:35.269Z,87.30
2022-12-29T11:29:23.520Z,86.90
2022-12-29T11:31:59.852Z,86.70
2022-12-29T11:34:36.661Z,86.60
2022-12-29T11:37:17.435Z,85.80
2022-12-29T11:40:09.057Z,85.60
2022-12-29T11:42:52.548Z,85.90
2022-12-29T11:45:24.353Z,84.70
2022-12-29T11:48:10.399Z,84.80
2022-12-29T11:50:43.754Z,83.90
2022-12-29T11:53:29.034Z,83.60
2022-12-29T11:56:11.302Z,83.90
2022-12-29T11:58:39.965Z,83.30
2022-12-29T12:01:34.729Z,84.60
2022-12-29T12:04:17.425Z,83.70
2022-12-29T12:07:08.548Z,84.20
2022-12-29T12:10:04.827Z,83.60
2022-12-29T12:12:59.823Z,84.20
2022-12-29T12:15:46.758Z,84.30
2022-12-29T12:18:33.090Z,84.50
2022-12-29T12:21:44.871Z,84.00
2022-12-29T12:24:49.811Z,84.40
2022-12-29T12:27:26.310Z,84.10
2022-12-29T12:30:24.689Z,83.80
2022-12-29T12:33:14.503Z,84.30
2022-12-29T12:36:30.546Z,84.90
2022-12-29T12:39:44.105Z,84.40
2022-12-29T12:43:07.697Z,84.10
2022-12-29T12:46:39.488Z,84.70
2022-12-29T12:49:43.128Z,85.50
2022-12-29T12:53:34.999Z,85.40
2022-12-29T12:56:48.347Z,86.10
2022-12-29T13:00:01.767Z,86.00
2022-12-29T13:02:50.305Z,86.00
2022-12-29T13:05:51.331Z,86.30
2022-12-29T13:08:49.935Z,86.50
2022-12-29T13:12:20.132Z,87.30
2022-12-29T13:15:43.446Z,86.70
2022-12-29T13:18:54.337Z,86.60
2022-12-29T13:22:06.004Z,87.00
2022-12-29T13:25:18.837Z,86.90
2022-12-29T13:28:28.451Z,86.70
2022-12-29T13:31:12.661Z,87.10
2022-12-29T13:34:36.531Z,87.30
2022-12-29T13:37:14.857Z,87.10
2022-12-29T13:40:16.946Z,87.70
2022-12-29T13:42:46.624Z,88.00
2022-12-29T13:45:25.205Z,88.20
2022-12-29T13:48:23.433Z,88.40
2022-12-29T13:50:59.311Z,88.90
2022-12-29T13:54:15.207Z,88.90
2022-12-29T13:57:27.641Z,89.40
2022-12-29T14:00:12.328Z,89.60
2022-12-29T14:03:03.184Z,89.40
2022-12-29T14:05:33.479Z,89.60
2022-12-29T14:08:16.641Z,89.40
2022-12-29T14:10:53.628Z,89.40
2022-12-29T14:13:27.347Z,89.60
2022-12-29T14:15:59.617Z,89.50
2022-12-29T14:18:44.276Z,90.00
2022-12-29T14:21:17.256Z,90.30
2022-12-29T14:23:51.912Z,90.90
2022-12-29T14:26:31.239Z,90.90
2022-12-29T14:29:42.794Z,91.00
2022-12-29T14:32:27.581Z,91.10
2022-12-29T14:35:04.715Z,91.20
2022-12-29T14:37:39.866Z,91.20
2022-12-29T14:40:27.286Z,91.40
2022-12-29T14:42:58.387Z,91.50
2022-12-29T14:45:31.297Z,91.50
2022-12-29T14:47:58.706Z,92.20
2022-12-29T14:50:44.779Z,92.30
2022-12-29T14:53:46.238Z,92.40
2022-12-29T14:56:19.932Z,92.70
2022-12-29T14:59:01.516Z,92.80
2022-12-29T15:01:55.754Z,93.10
2022-12-29T15:04:36.454Z,93.10
2022-12-29T15:07:11.402Z,93.30
2022-12-29T15:09:50.425Z,93.40
2022-12-29T15:12:47.641Z,93.60
2022-12-29T15:15:27.817Z,93.70
2022-12-29T15:17:55.075Z,93.80
2022-12-29T15:20:32.714Z,93.90
2022-12-29T15:23:12.743Z,94.00
2022-12-29T15:25:58.130Z,94.10
2022-12-29T15:28:27.675Z,94.10
2022-12-29T15:31:03.303Z,94.20
2022-12-29T15:33:30.772Z,94.20
2022-12-29T15:36:04.914Z,94.20
2022-12-29T15:38:38.631Z,94.10
2022-12-29T15:42:04.846Z,94.00
2022-12-29T15:44:45.690Z,93.90
2022-12-29T15:47:21.548Z,94.00
2022-12-29T15:50:17.721Z,93.90
2022-12-29T15:52:44.865Z,94.00
2022-12-29T15:55:58.335Z,94.10
2022-12-29T15:58:31.780Z,94.20
2022-12-29T16:01:02.646Z,94.40
2022-12-29T16:03:37.168Z,94.50
2022-12-29T16:06:28.369Z,94.60
2022-12-29T16:09:16.102Z,94.70
2022-12-29T16:11:55.368Z,94.90
2022-12-29T16:14:38.435Z,94.90
2022-12-29T16:17:06.060Z,95.00
2022-12-29T16:19:51.053Z,95.00
2022-12-29T16:22:40.641Z,95.10
2022-12-29T16:25:39.199Z,95.10
2022-12-29T16:28:25.795Z,95.30
2022-12-29T16:31:18.093Z,95.40
2022-12-29T16:33:56.859Z,95.60
2022-12-29T16:36:41.824Z,95.80
2022-12-29T16:39:40.402Z,96.00
2022-12-29T16:42:50.584Z,96.20
2022-12-29T16:45:21.431Z,96.40
2022-12-29T16:48:14.257Z,96.50
2022-12-29T16:50:46.686Z,96.70
2022-12-29T16:53:34.697Z,96.80
2022-12-29T16:56:23.112Z,96.80
2022-12-29T16:59:03.869Z,96.70
2022-12-29T17:01:31.131Z,96.70
2022-12-29T17:04:11.113Z,96.70
2022-12-29T17:06:39.101Z,96.70
2022-12-29T17:09:27.238Z,96.60
2022-12-29T17:12:05.335Z,96.60
2022-12-29T17:14:47.159Z,96.50
2022-12-29T17:17:47.224Z,96.50
2022-12-29T17:20:23.737Z,96.50
2022-12-29T17:22:55.276Z,96.50
2022-12-29T17:25:37.393Z,96.60
2022-12-29T17:28:32.168Z,96.60
2022-12-29T17:31:06.669Z,96.50
2022-12-29T17:33:40.406Z,96.50
2022-12-29T17:36:07.879Z,96.30
2022-12-29T17:38:38.063Z,96.20
2022-12-29T17:41:13.696Z,96.10
2022-12-29T17:43:41.113Z,95.90
2022-12-29T17:46:08.903Z,95.80
2022-12-29T17:48:35.980Z,95.70
2022-12-29T17:51:03.317Z,95.60
2022-12-29T17:53:31.533Z,95.70
2022-12-29T17:55:58.589Z,95.40
2022-12-29T17:58:31.726Z,95.40
2022-12-29T18:01:02.982Z,95.50
2022-12-29T18:03:41.080Z,96.00
2022-12-29T18:06:12.672Z,96.70
2022-12-29T18:08:41.801Z,97.60
2022-12-29T18:11:26.544Z,98.40
2022-12-29T18:13:55.010Z,99.30
2022-12-29T18:16:23.289Z,99.90
2022-12-29T18:18:50.741Z,99.90
2022-12-29T18:21:24.295Z,99.90
2022-12-29T18:23:52.530Z,99.90
2022-12-29T18:26:31.509Z,99.90
2022-12-29T18:28:59.409Z,99.90
2022-12-29T18:31:31.701Z,99.90
2022-12-29T18:34:07.422Z,99.90
2022-12-29T18:36:34.343Z,99.90
2022-12-29T18:39:01.238Z,99.90
2022-12-29T18:41:30.212Z,99.90
2022-12-29T18:43:59.428Z,99.90
2022-12-29T18:46:27.171Z,99.90
2022-12-29T18:48:54.546Z,99.90
2022-12-29T18:51:26.586Z,99.90
2022-12-29T18:53:54.082Z,99.90
2022-12-29T18:56:23.517Z,99.90
2022-12-29T18:58:51.487Z,99.90
2022-12-29T19:01:27.807Z,99.90
2022-12-29T19:03:55.307Z,99.90
2022-12-29T19:06:23.192Z,99.90
2022-12-29T19:08:50.259Z,99.90
2022-12-29T19:11:18.013Z,99.90
2022-12-29T19:13:45.086Z,99.90
2022-12-29T19:16:24.896Z,99.90
2022-12-29T19:19:08.246Z,99.90
2022-12-29T19:21:38.709Z,99.90
2022-12-29T19:24:06.870Z,99.90
2022-12-29T19:26:39.539Z,99.90
2022-12-29T19:29:15.728Z,99.90
2022-12-29T19:31:43.031Z,99.90
2022-12-29T19:34:16.360Z,99.90
2022-12-29T19:36:45.331Z,99.90
2022-12-29T19:39:13.255Z,99.90
2022-12-29T19:41:40.969Z,99.90
2022-12-29T19:44:08.294Z,99.90
2022-12-29T19:46:35.357Z,99.90
2022-12-29T19:49:02.281Z,99.90
2022-12-29T19:51:29.198Z,99.90
2022-12-29T19:53:58.377Z,99.90
2022-12-29T19:56:25.603Z,99.90
2022-12-29T19:58:52.728Z,99.90
2022-12-29T20:01:24.563Z,99.90
2022-12-29T20:03:52.529Z,99.90
2022-12-29T20:06:20.792Z,99.90
2022-12-29T20:08:48.074Z,99.90
2022-12-29T20:11:19.417Z,99.90
2022-12-29T20:13:47.389Z,99.90
2022-12-29T20:16:20.215Z,99.90
2022-12-29T20:18:48.937Z,99.90
2022-12-29T20:21:22.819Z,99.90
2022-12-29T20:23:53.014Z,99.90
2022-12-29T20:26:28.873Z,99.90
2022-12-29T20:28:57.974Z,99.90
2022-12-29T20:31:36.694Z,99.90
2022-12-29T20:34:09.487Z,99.90
2022-12-29T20:36:43.676Z,99.90
2022-12-29T20:39:18.054Z,99.90
2022-12-29T20:41:46.605Z,99.90
2022-12-29T20:44:14.755Z,99.90
2022-12-29T20:46:44.318Z,99.90
2022-12-29T20:49:11.920Z,99.90
2022-12-29T20:52:07.637Z,99.90
2022-12-29T20:54:38.494Z,99.90
2022-12-29T20:57:06.587Z,99.90
2022-12-29T20:59:33.656Z,99.90
2022-12-29T21:02:00.843Z,99.90
2022-12-29T21:04:38.431Z,99.90
2022-12-29T21:07:19.902Z,99.90
2022-12-29T21:09:47.381Z,99.90
2022-12-29T21:12:14.829Z,99.90
2022-12-29T21:14:45.569Z,99.90
2022-12-29T21:17:13.050Z,99.90
2022-12-29T21:19:40.037Z,99.90
2022-12-29T21:22:07.067Z,99.90
2022-12-29T21:24:33.998Z,99.90
2022-12-29T21:27:00.909Z,99.90
2022-12-29T21:29:27.817Z,99.90
2022-12-29T21:31:54.721Z,99.90
2022-12-29T21:34:21.680Z,99.90
2022-12-29T21:36:48.679Z,99.90
2022-12-29T21:39:16.412Z,99.90
2022-12-29T21:41:43.333Z,99.90
2022-12-29T21:44:30.132Z,99.90
2022-12-29T21:46:57.217Z,99.90
2022-12-29T21:49:26.109Z,99.90
2022-12-29T21:51:57.423Z,99.90
2022-12-29T21:54:49.370Z,99.90
2022-12-29T21:57:38.197Z,99.90
2022-12-29T22:00:29.037Z,99.90
2022-12-29T22:03:22.588Z,99.90
2022-12-29T22:06:10.672Z,99.90
2022-12-29T22:08:57.751Z,99.90
2022-12-29T22:11:43.897Z,99.90
2022-12-29T22:14:10.930Z,99.90
2022-12-29T22:16:37.997Z,99.90
2022-12-29T22:19:07.705Z,99.90
2022-12-29T22:21:34.628Z,99.90
2022-12-29T22:24:01.547Z,99.90
2022-12-29T22:26:28.417Z,99.90
2022-12-29T22:28:55.564Z,99.90
2022-12-29T22:31:30.150Z,99.90
2022-12-29T22:34:01.551Z,99.90
2022-12-29T22:36:29.993Z,99.90
2022-12-29T22:38:57.063Z,99.90
2022-12-29T22:41:24.296Z,99.90
2022-12-29T22:43:51.447Z,99.90
2022-12-29T22:46:18.656Z,99.90
2022-12-29T22:48:45.591Z,99.90
2022-12-29T22:51:12.560Z,99.90
2022-12-29T22:53:40.898Z,99.90
2022-12-29T22:56:12.969Z,99.90
2022-12-29T22:58:47.405Z,99.90
2022-12-29T23:01:18.285Z,99.90
2022-12-29T23:03:45.637Z,99.90
2022-12-29T23:06:16.737Z,99.90
2022-12-29T23:08:44.817Z,99.90
2022-12-29T23:11:13.503Z,99.90
2022-12-29T23:13:42.049Z,99.90
2022-12-29T23:16:09.014Z,99.90
2022-12-29T23:18:38.168Z,99.90
2022-12-29T23:21:05.697Z,99.90
2022-12-29T23:23:51.445Z,99.90
2022-12-29T23:26:30.029Z,99.90
2022-12-29T23:29:00.490Z,99.90
2022-12-29T23:31:30.160Z,99.90
2022-12-29T23:33:59.461Z,99.90
2022-12-29T23:36:27.109Z,99.90
2022-12-29T23:38:54.602Z,99.90
2022-12-29T23:41:21.894Z,99.90
2022-12-29T23:43:49.034Z,99.90
2022-12-29T23:46:26.933Z,99.90
2022-12-29T23:48:54.201Z,99.90
2022-12-29T23:51:21.452Z,99.90
2022-12-29T23:53:48.882Z,99.90
2022-12-29T23:56:21.597Z,99.90
2022-12-29T23:58:50.656Z,99.90
